»·PEaware :: ASA180 KPSC-KMFR

ASA180 :: KPSC-KMFR

FLIGHT INFORMATION

Flight Status: Arrived
Operator:
Alaska Airlines
More flights by this operator :: More flights under this callsign
Pilot: Etienne B. (28927)
Aircraft: AIRBUS A320
(A320)
More flights by this aircraft type
Origin: KPSC Tri-Cities
United States
Destination: KMFR Rogue Valley Intl-Medford
United States
More flights between these airports :: More routes between these airports
Route: PDT OED
File this flight plan on PilotEdge
Remarks: RMK / SIMBRIEF
Altitude:
(Current/Filed)
32,000ft
Speed:
(Current/Filed)
454kts
Departed: 05-May-20 03:37 PM
Arrived: 05-May-20 04:39 PM
Distance/Time
Traveled:
284nm/1:02
Distance/Time
To Go:
Arrived

Flight Plot

Page will automatically refresh every two minutes.

Flight plan parsing failed; only flown route is shown


Map Options




Map Legend


Flown Route
Filed Route
Departure Airport
Arrival Airport
Navaid (VOR, NDB)
Fix

Horizontal Profiles

Position Reports

Time Latitude Longitude Heading Altitude Ground
Speed
05-May-20 15:13 46.258970 -119.113120 268 406ft 0kts
05-May-20 15:14 46.258970 -119.113120 268 406ft 0kts
05-May-20 15:15 46.258970 -119.113120 268 406ft 0kts
05-May-20 15:16 46.258970 -119.113120 268 406ft 0kts
05-May-20 15:17 46.258970 -119.113120 268 406ft 0kts
05-May-20 15:18 46.258970 -119.113120 268 406ft 0kts
05-May-20 15:19 46.258970 -119.113120 268 406ft 0kts
05-May-20 15:20 46.258970 -119.113120 268 406ft 0kts
05-May-20 15:21 46.258970 -119.113120 268 406ft 0kts
05-May-20 15:22 46.258970 -119.113120 268 406ft 0kts
05-May-20 15:23 46.258991 -119.112801 265 406ft 2kts
05-May-20 15:24 46.259022 -119.111996 275 406ft 2kts
05-May-20 15:25 46.258791 -119.111500 327 406ft 0kts
05-May-20 15:26 46.258792 -119.111501 327 406ft 0kts
05-May-20 15:27 46.258792 -119.111501 327 406ft 0kts
05-May-20 15:28 46.260159 -119.112725 349 406ft 11kts
05-May-20 15:29 46.260213 -119.112740 342 407ft 0kts
05-May-20 15:30 46.262255 -119.112301 66 409ft 21kts
05-May-20 15:31 46.264024 -119.107156 340 416ft 5kts
05-May-20 15:32 46.267482 -119.108644 4 415ft 19kts
05-May-20 15:33 46.268324 -119.108782 324 415ft 0kts
05-May-20 15:34 46.268355 -119.108814 324 415ft 0kts
05-May-20 15:35 46.270356 -119.111681 289 413ft 14kts
05-May-20 15:36 46.252364 -119.138502 227 762ft 189kts
05-May-20 15:37 46.213147 -119.195156 227 3553ft 212kts
05-May-20 15:38 46.153949 -119.214289 158 5617ft 281kts
05-May-20 15:39 46.079622 -119.169369 160 8562ft 290kts
05-May-20 15:40 46.005318 -119.123675 161 10773ft 310kts
05-May-20 15:41 45.919406 -119.071684 160 12521ft 345kts
05-May-20 15:42 45.829996 -119.017659 161 14781ft 353kts
05-May-20 15:43 45.738570 -118.963435 167 16834ft 357kts
05-May-20 15:44 45.651013 -119.002574 222 18691ft 350kts
05-May-20 15:45 45.579831 -119.096654 222 20541ft 351kts
05-May-20 15:46 45.507760 -119.191814 223 22124ft 354kts
05-May-20 15:47 45.435278 -119.287315 223 23539ft 357kts
05-May-20 15:48 45.361851 -119.383735 224 24802ft 361kts
05-May-20 15:49 45.287797 -119.480631 224 25949ft 364kts
05-May-20 15:50 45.212762 -119.578447 225 26980ft 368kts
05-May-20 15:51 45.136963 -119.676886 225 27926ft 371kts
05-May-20 15:52 45.060381 -119.775973 225 28764ft 376kts
05-May-20 15:53 44.982768 -119.876008 225 29495ft 381kts
05-May-20 15:54 44.904298 -119.976716 226 30553ft 376kts
05-May-20 15:55 44.828962 -120.072996 227 32077ft 361kts
05-May-20 15:56 44.753128 -120.169757 227 32111ft 371kts
05-May-20 15:58 44.676624 -120.266861 227 32104ft 369kts
05-May-20 15:59 44.600449 -120.363217 227 32104ft 369kts
05-May-20 16:00 44.524257 -120.459242 227 32100ft 369kts
05-May-20 16:01 44.447913 -120.555105 227 32099ft 369kts
05-May-20 16:02 44.371546 -120.650648 226 32100ft 369kts
05-May-20 16:03 44.294579 -120.746598 226 32115ft 371kts
05-May-20 16:04 44.217731 -120.842036 226 32125ft 371kts
05-May-20 16:05 44.140691 -120.937366 226 32113ft 370kts
05-May-20 16:06 44.063573 -121.032443 226 32101ft 369kts
05-May-20 16:07 43.987109 -121.126369 225 32103ft 365kts
05-May-20 16:08 43.911382 -121.219064 225 32088ft 361kts
05-May-20 16:09 43.836453 -121.310470 224 32067ft 359kts
05-May-20 16:10 43.761598 -121.401472 224 32051ft 358kts
05-May-20 16:11 43.686827 -121.492059 224 32054ft 358kts
05-May-20 16:12 43.615055 -121.578612 224 31232ft 339kts
05-May-20 16:13 43.542992 -121.665419 222 28630ft 344kts
05-May-20 16:14 43.471599 -121.751038 222 26506ft 339kts
05-May-20 16:15 43.401914 -121.834326 221 24283ft 317kts
05-May-20 16:16 43.338441 -121.909937 220 22808ft 301kts
05-May-20 16:16 43.285573 -121.972858 220 21129ft 302kts
05-May-20 16:18 43.211832 -122.060286 219 18895ft 300kts
05-May-20 16:18 43.159349 -122.122328 219 17319ft 299kts
05-May-20 16:19 43.096692 -122.196204 219 15471ft 297kts
05-May-20 16:20 43.034176 -122.269706 219 13659ft 296kts
05-May-20 16:22 42.961028 -122.355450 220 12021ft 300kts
05-May-20 16:22 42.908015 -122.417422 221 11593ft 297kts
05-May-20 16:23 42.845183 -122.490665 221 11020ft 284kts
05-May-20 16:24 42.788357 -122.556655 221 11022ft 263kts
05-May-20 16:25 42.732123 -122.621957 222 9767ft 272kts
05-May-20 16:26 42.673285 -122.690074 221 8097ft 279kts
05-May-20 16:27 42.617966 -122.753819 222 8022ft 255kts
05-May-20 16:28 42.563280 -122.815928 211 8005ft 260kts
05-May-20 16:29 42.491301 -122.805786 165 6549ft 269kts
05-May-20 16:30 42.424653 -122.771422 160 5223ft 244kts
05-May-20 16:31 42.360377 -122.737607 159 4323ft 248kts
05-May-20 16:32 42.298552 -122.718222 186 4969ft 210kts
05-May-20 16:33 42.251857 -122.746919 245 3838ft 181kts
05-May-20 16:34 42.264673 -122.799919 324 3029ft 160kts
05-May-20 16:35 42.302031 -122.831093 331 2626ft 160kts
05-May-20 16:36 42.340682 -122.855362 337 1884ft 156kts
05-May-20 16:37 42.375474 -122.873473 338 1314ft 41kts
05-May-20 16:38 42.376325 -122.874534 248 1312ft 0kts
05-May-20 16:39 42.374670 -122.874736 157 1315ft 16kts
05-May-20 16:40 42.370261 -122.872607 183 1321ft 13kts

Navigation Log

Ident Type
Flight plan parsing failed, navigation log unavailable